Airport View

Enter AWOS ICAO identifier for current METAR.

ex. KFNL

KBJC 251030Z AUTO 02011KT 4SM UP BKN005 OVC013 M08/M08 A3010 RMK AO2

25 Oct 2020 10:48

Frequency: 126.250

Phone: 720-887-8067

Other Area AWOS: KEIK - KBDU - KLMO - KBKF

TAF AMD KBJC 250904Z 2509/2606 01012KT 3SM -SN BR BKN007 OVC012 FM251300 36012G18KT 2SM -SN BR OVC008 FM251800 36010KT 1SM -SN BR OVC006 TEMPO 2520/2524 1/2SM SN VV002 FM260400 02008KT 2SM -SN BR BKN008 OVC012